sensor_id;sensor_type;location;lat;lon;timestamp;P1;durP1;ratioP1;P2;durP2;ratioP2
21615;SDS011;10970;48.714;9.584;2023-03-01T00:01:33;20.77;;;11.60;;
21615;SDS011;10970;48.714;9.584;2023-03-01T00:03:58;19.00;;;11.90;;
21615;SDS011;10970;48.714;9.584;2023-03-01T00:06:24;20.00;;;12.73;;
21615;SDS011;10970;48.714;9.584;2023-03-01T00:08:51;19.67;;;11.38;;
21615;SDS011;10970;48.714;9.584;2023-03-01T00:13:47;21.73;;;11.93;;
21615;SDS011;10970;48.714;9.584;2023-03-01T00:16:15;19.25;;;12.50;;
21615;SDS011;10970;48.714;9.584;2023-03-01T00:18:46;21.55;;;13.20;;
21615;SDS011;10970;48.714;9.584;2023-03-01T00:21:12;17.33;;;11.90;;
21615;SDS011;10970;48.714;9.584;2023-03-01T00:23:38;20.27;;;10.40;;
21615;SDS011;10970;48.714;9.584;2023-03-01T00:26:08;21.98;;;10.73;;
21615;SDS011;10970;48.714;9.584;2023-03-01T00:28:35;23.60;;;13.40;;
21615;SDS011;10970;48.714;9.584;2023-03-01T00:31:04;16.57;;;11.57;;
21615;SDS011;10970;48.714;9.584;2023-03-01T00:33:40;17.30;;;11.25;;
21615;SDS011;10970;48.714;9.584;2023-03-01T00:36:07;16.70;;;11.15;;
21615;SDS011;10970;48.714;9.584;2023-03-01T00:38:34;16.77;;;10.77;;
21615;SDS011;10970;48.714;9.584;2023-03-01T00:41:04;22.92;;;12.40;;
21615;SDS011;10970;48.714;9.584;2023-03-01T00:43:38;17.10;;;12.07;;
21615;SDS011;10970;48.714;9.584;2023-03-01T00:46:04;19.30;;;11.77;;
21615;SDS011;10970;48.714;9.584;2023-03-01T00:48:35;19.17;;;11.88;;
21615;SDS011;10970;48.714;9.584;2023-03-01T00:51:05;17.15;;;11.60;;
21615;SDS011;10970;48.714;9.584;2023-03-01T00:53:31;18.33;;;11.98;;
21615;SDS011;10970;48.714;9.584;2023-03-01T00:55:57;19.83;;;11.33;;
21615;SDS011;10970;48.714;9.584;2023-03-01T00:58:23;15.45;;;10.90;;
21615;SDS011;10970;48.714;9.584;2023-03-01T01:00:49;23.52;;;12.07;;
21615;SDS011;10970;48.714;9.584;2023-03-01T01:03:15;17.07;;;10.73;;
21615;SDS011;10970;48.714;9.584;2023-03-01T01:05:40;17.90;;;12.30;;
21615;SDS011;10970;48.714;9.584;2023-03-01T01:08:06;18.93;;;11.37;;
21615;SDS011;10970;48.714;9.584;2023-03-01T01:10:33;25.07;;;12.03;;
21615;SDS011;10970;48.714;9.584;2023-03-01T01:12:59;19.40;;;12.10;;
21615;SDS011;10970;48.714;9.584;2023-03-01T01:15:25;23.20;;;11.43;;
21615;SDS011;10970;48.714;9.584;2023-03-01T01:17:50;17.33;;;11.77;;
21615;SDS011;10970;48.714;9.584;2023-03-01T01:20:16;18.23;;;11.87;;
21615;SDS011;10970;48.714;9.584;2023-03-01T01:22:42;14.90;;;10.70;;
21615;SDS011;10970;48.714;9.584;2023-03-01T01:25:08;18.40;;;13.10;;
21615;SDS011;10970;48.714;9.584;2023-03-01T01:27:34;17.67;;;12.13;;
21615;SDS011;10970;48.714;9.584;2023-03-01T01:29:59;19.17;;;13.33;;
21615;SDS011;10970;48.714;9.584;2023-03-01T01:32:25;21.93;;;13.40;;
21615;SDS011;10970;48.714;9.584;2023-03-01T01:34:51;17.07;;;12.20;;
21615;SDS011;10970;48.714;9.584;2023-03-01T01:37:16;17.43;;;10.90;;
21615;SDS011;10970;48.714;9.584;2023-03-01T01:39:42;21.27;;;13.67;;
21615;SDS011;10970;48.714;9.584;2023-03-01T01:42:12;24.23;;;13.93;;
21615;SDS011;10970;48.714;9.584;2023-03-01T01:44:42;18.83;;;11.80;;
21615;SDS011;10970;48.714;9.584;2023-03-01T01:47:20;18.45;;;12.48;;
21615;SDS011;10970;48.714;9.584;2023-03-01T01:49:53;15.02;;;11.00;;
21615;SDS011;10970;48.714;9.584;2023-03-01T01:52:27;15.50;;;11.68;;
21615;SDS011;10970;48.714;9.584;2023-03-01T01:55:05;19.73;;;13.05;;
21615;SDS011;10970;48.714;9.584;2023-03-01T01:57:41;23.20;;;12.65;;
21615;SDS011;10970;48.714;9.584;2023-03-01T02:00:12;19.30;;;12.07;;
21615;SDS011;10970;48.714;9.584;2023-03-01T02:02:39;17.23;;;12.00;;
21615;SDS011;10970;48.714;9.584;2023-03-01T02:07:54;24.63;;;12.40;;
21615;SDS011;10970;48.714;9.584;2023-03-01T02:10:23;20.92;;;13.48;;
21615;SDS011;10970;48.714;9.584;2023-03-01T02:12:49;17.85;;;12.10;;
21615;SDS011;10970;48.714;9.584;2023-03-01T02:15:16;20.00;;;12.90;;
21615;SDS011;10970;48.714;9.584;2023-03-01T02:17:42;22.00;;;15.00;;
21615;SDS011;10970;48.714;9.584;2023-03-01T02:22:57;17.83;;;11.50;;
21615;SDS011;10970;48.714;9.584;2023-03-01T02:26:09;19.73;;;12.47;;
21615;SDS011;10970;48.714;9.584;2023-03-01T02:30:39;17.37;;;11.70;;
21615;SDS011;10970;48.714;9.584;2023-03-01T02:33:26;20.65;;;11.75;;
21615;SDS011;10970;48.714;9.584;2023-03-01T02:35:52;16.63;;;12.48;;
21615;SDS011;10970;48.714;9.584;2023-03-01T02:38:20;19.52;;;12.07;;
21615;SDS011;10970;48.714;9.584;2023-03-01T02:40:47;20.08;;;11.60;;
21615;SDS011;10970;48.714;9.584;2023-03-01T02:43:16;24.77;;;14.73;;
21615;SDS011;10970;48.714;9.584;2023-03-01T02:45:52;17.77;;;13.70;;
21615;SDS011;10970;48.714;9.584;2023-03-01T02:48:21;17.95;;;12.85;;
21615;SDS011;10970;48.714;9.584;2023-03-01T02:50:52;19.83;;;13.47;;
21615;SDS011;10970;48.714;9.584;2023-03-01T02:56:20;24.55;;;14.65;;
21615;SDS011;10970;48.714;9.584;2023-03-01T02:58:46;18.40;;;11.53;;
21615;SDS011;10970;48.714;9.584;2023-03-01T03:01:16;17.35;;;12.55;;
21615;SDS011;10970;48.714;9.584;2023-03-01T03:03:45;21.25;;;14.13;;
21615;SDS011;10970;48.714;9.584;2023-03-01T03:06:11;19.67;;;14.43;;
21615;SDS011;10970;48.714;9.584;2023-03-01T03:08:37;22.02;;;13.35;;
21615;SDS011;10970;48.714;9.584;2023-03-01T03:11:03;17.13;;;11.63;;
21615;SDS011;10970;48.714;9.584;2023-03-01T03:13:29;22.43;;;13.97;;
21615;SDS011;10970;48.714;9.584;2023-03-01T03:15:57;17.60;;;11.60;;
21615;SDS011;10970;48.714;9.584;2023-03-01T03:18:23;19.40;;;12.77;;
21615;SDS011;10970;48.714;9.584;2023-03-01T03:20:52;22.13;;;14.60;;
21615;SDS011;10970;48.714;9.584;2023-03-01T03:23:19;24.90;;;15.13;;
21615;SDS011;10970;48.714;9.584;2023-03-01T03:25:47;19.80;;;12.93;;
21615;SDS011;10970;48.714;9.584;2023-03-01T03:28:14;22.17;;;14.63;;
21615;SDS011;10970;48.714;9.584;2023-03-01T03:30:41;21.13;;;12.32;;
21615;SDS011;10970;48.714;9.584;2023-03-01T03:33:08;22.13;;;14.20;;
21615;SDS011;10970;48.714;9.584;2023-03-01T03:35:39;22.15;;;13.27;;
21615;SDS011;10970;48.714;9.584;2023-03-01T03:38:10;17.63;;;14.05;;
21615;SDS011;10970;48.714;9.584;2023-03-01T03:40:42;18.25;;;12.90;;
21615;SDS011;10970;48.714;9.584;2023-03-01T03:43:10;18.50;;;13.10;;
21615;SDS011;10970;48.714;9.584;2023-03-01T03:45:40;21.67;;;12.30;;
21615;SDS011;10970;48.714;9.584;2023-03-01T03:48:07;21.80;;;13.93;;
21615;SDS011;10970;48.714;9.584;2023-03-01T03:50:34;20.13;;;13.10;;
21615;SDS011;10970;48.714;9.584;2023-03-01T03:53:02;20.40;;;14.52;;
21615;SDS011;10970;48.714;9.584;2023-03-01T03:55:29;20.75;;;13.57;;
21615;SDS011;10970;48.714;9.584;2023-03-01T03:57:59;25.33;;;15.77;;
21615;SDS011;10970;48.714;9.584;2023-03-01T04:00:27;21.52;;;13.40;;
21615;SDS011;10970;48.714;9.584;2023-03-01T04:02:53;24.27;;;12.85;;
21615;SDS011;10970;48.714;9.584;2023-03-01T04:05:21;19.48;;;13.40;;
21615;SDS011;10970;48.714;9.584;2023-03-01T04:07:47;19.77;;;13.30;;
21615;SDS011;10970;48.714;9.584;2023-03-01T04:10:14;25.20;;;13.90;;
21615;SDS011;10970;48.714;9.584;2023-03-01T04:12:42;20.50;;;14.50;;
21615;SDS011;10970;48.714;9.584;2023-03-01T04:15:08;18.63;;;11.67;;
21615;SDS011;10970;48.714;9.584;2023-03-01T04:17:42;18.20;;;12.55;;
21615;SDS011;10970;48.714;9.584;2023-03-01T04:20:13;23.27;;;13.02;;
21615;SDS011;10970;48.714;9.584;2023-03-01T04:22:43;20.85;;;15.10;;
21615;SDS011;10970;48.714;9.584;2023-03-01T04:25:11;22.10;;;13.88;;
21615;SDS011;10970;48.714;9.584;2023-03-01T04:27:39;25.77;;;13.82;;
21615;SDS011;10970;48.714;9.584;2023-03-01T04:30:05;20.35;;;13.23;;
21615;SDS011;10970;48.714;9.584;2023-03-01T04:32:32;20.17;;;13.70;;
21615;SDS011;10970;48.714;9.584;2023-03-01T04:34:58;18.43;;;13.77;;
21615;SDS011;10970;48.714;9.584;2023-03-01T04:37:24;24.13;;;16.55;;
21615;SDS011;10970;48.714;9.584;2023-03-01T04:39:50;18.47;;;13.50;;
21615;SDS011;10970;48.714;9.584;2023-03-01T04:42:16;21.90;;;13.43;;
21615;SDS011;10970;48.714;9.584;2023-03-01T04:44:42;18.40;;;12.77;;
21615;SDS011;10970;48.714;9.584;2023-03-01T04:47:08;17.50;;;12.90;;
21615;SDS011;10970;48.714;9.584;2023-03-01T04:49:34;24.67;;;15.10;;
21615;SDS011;10970;48.714;9.584;2023-03-01T04:51:59;18.77;;;13.27;;
21615;SDS011;10970;48.714;9.584;2023-03-01T04:54:27;18.90;;;12.48;;
21615;SDS011;10970;48.714;9.584;2023-03-01T04:56:53;16.95;;;13.32;;
21615;SDS011;10970;48.714;9.584;2023-03-01T04:59:19;24.40;;;14.63;;
21615;SDS011;10970;48.714;9.584;2023-03-01T05:01:47;22.60;;;14.40;;
21615;SDS011;10970;48.714;9.584;2023-03-01T05:04:13;18.10;;;13.77;;
21615;SDS011;10970;48.714;9.584;2023-03-01T05:06:39;19.00;;;13.63;;
21615;SDS011;10970;48.714;9.584;2023-03-01T05:09:05;18.50;;;13.90;;
21615;SDS011;10970;48.714;9.584;2023-03-01T05:11:31;17.20;;;13.40;;
21615;SDS011;10970;48.714;9.584;2023-03-01T05:14:00;24.30;;;14.88;;
21615;SDS011;10970;48.714;9.584;2023-03-01T05:16:26;21.98;;;14.80;;
21615;SDS011;10970;48.714;9.584;2023-03-01T05:18:52;20.33;;;13.63;;
21615;SDS011;10970;48.714;9.584;2023-03-01T05:21:20;23.85;;;15.15;;
21615;SDS011;10970;48.714;9.584;2023-03-01T05:23:46;24.50;;;15.97;;
21615;SDS011;10970;48.714;9.584;2023-03-01T05:26:12;18.80;;;14.10;;
21615;SDS011;10970;48.714;9.584;2023-03-01T05:28:38;19.65;;;15.07;;
21615;SDS011;10970;48.714;9.584;2023-03-01T05:31:04;27.60;;;17.50;;
21615;SDS011;10970;48.714;9.584;2023-03-01T05:33:35;21.05;;;13.82;;
21615;SDS011;10970;48.714;9.584;2023-03-01T05:36:05;24.02;;;14.50;;
21615;SDS011;10970;48.714;9.584;2023-03-01T05:38:32;19.35;;;14.48;;
21615;SDS011;10970;48.714;9.584;2023-03-01T05:40:58;24.13;;;13.90;;
21615;SDS011;10970;48.714;9.584;2023-03-01T05:43:24;19.90;;;13.27;;
21615;SDS011;10970;48.714;9.584;2023-03-01T05:45:50;19.23;;;14.03;;
21615;SDS011;10970;48.714;9.584;2023-03-01T05:48:16;19.90;;;13.57;;
21615;SDS011;10970;48.714;9.584;2023-03-01T05:50:44;24.98;;;13.75;;
21615;SDS011;10970;48.714;9.584;2023-03-01T05:53:13;21.52;;;15.13;;
21615;SDS011;10970;48.714;9.584;2023-03-01T05:55:44;18.67;;;13.25;;
21615;SDS011;10970;48.714;9.584;2023-03-01T05:58:13;22.85;;;14.80;;
21615;SDS011;10970;48.714;9.584;2023-03-01T06:00:41;21.30;;;15.27;;
21615;SDS011;10970;48.714;9.584;2023-03-01T06:03:09;22.65;;;14.70;;
21615;SDS011;10970;48.714;9.584;2023-03-01T06:05:36;20.10;;;14.40;;
21615;SDS011;10970;48.714;9.584;2023-03-01T06:08:02;22.23;;;14.80;;
21615;SDS011;10970;48.714;9.584;2023-03-01T06:10:28;19.75;;;13.55;;
21615;SDS011;10970;48.714;9.584;2023-03-01T06:12:54;20.58;;;14.10;;
21615;SDS011;10970;48.714;9.584;2023-03-01T06:15:20;21.63;;;13.53;;
21615;SDS011;10970;48.714;9.584;2023-03-01T06:17:46;23.50;;;14.83;;
21615;SDS011;10970;48.714;9.584;2023-03-01T06:20:16;20.70;;;14.90;;
21615;SDS011;10970;48.714;9.584;2023-03-01T06:22:45;26.05;;;16.88;;
21615;SDS011;10970;48.714;9.584;2023-03-01T06:25:13;23.75;;;14.02;;
21615;SDS011;10970;48.714;9.584;2023-03-01T06:27:41;28.38;;;15.18;;
21615;SDS011;10970;48.714;9.584;2023-03-01T06:30:07;21.05;;;13.38;;
21615;SDS011;10970;48.714;9.584;2023-03-01T06:32:35;23.98;;;13.82;;
21615;SDS011;10970;48.714;9.584;2023-03-01T06:35:02;21.75;;;13.82;;
21615;SDS011;10970;48.714;9.584;2023-03-01T06:37:29;23.60;;;16.48;;
21615;SDS011;10970;48.714;9.584;2023-03-01T06:39:54;23.47;;;15.77;;
21615;SDS011;10970;48.714;9.584;2023-03-01T06:42:20;22.57;;;15.57;;
21615;SDS011;10970;48.714;9.584;2023-03-01T06:44:46;21.57;;;14.17;;
21615;SDS011;10970;48.714;9.584;2023-03-01T06:47:11;21.73;;;14.77;;
21615;SDS011;10970;48.714;9.584;2023-03-01T06:49:37;19.00;;;13.70;;
21615;SDS011;10970;48.714;9.584;2023-03-01T06:52:03;18.83;;;12.77;;
21615;SDS011;10970;48.714;9.584;2023-03-01T06:54:29;24.37;;;15.73;;
21615;SDS011;10970;48.714;9.584;2023-03-01T06:56:54;21.90;;;15.00;;
21615;SDS011;10970;48.714;9.584;2023-03-01T06:59:20;28.83;;;15.07;;
21615;SDS011;10970;48.714;9.584;2023-03-01T07:01:46;27.43;;;14.07;;
21615;SDS011;10970;48.714;9.584;2023-03-01T07:04:12;22.67;;;16.40;;
21615;SDS011;10970;48.714;9.584;2023-03-01T07:06:38;23.25;;;14.30;;
21615;SDS011;10970;48.714;9.584;2023-03-01T07:09:04;23.20;;;15.30;;
21615;SDS011;10970;48.714;9.584;2023-03-01T07:11:29;26.07;;;14.20;;
21615;SDS011;10970;48.714;9.584;2023-03-01T07:13:55;23.23;;;14.57;;
21615;SDS011;10970;48.714;9.584;2023-03-01T07:16:21;22.70;;;15.17;;
21615;SDS011;10970;48.714;9.584;2023-03-01T07:18:46;28.13;;;15.13;;
21615;SDS011;10970;48.714;9.584;2023-03-01T07:21:13;23.53;;;17.07;;
21615;SDS011;10970;48.714;9.584;2023-03-01T07:23:39;29.15;;;15.73;;
21615;SDS011;10970;48.714;9.584;2023-03-01T07:26:05;21.08;;;14.38;;
21615;SDS011;10970;48.714;9.584;2023-03-01T07:28:32;20.60;;;13.85;;
21615;SDS011;10970;48.714;9.584;2023-03-01T07:31:04;23.23;;;14.52;;
21615;SDS011;10970;48.714;9.584;2023-03-01T07:33:31;21.73;;;15.90;;
21615;SDS011;10970;48.714;9.584;2023-03-01T07:35:58;22.67;;;15.85;;
21615;SDS011;10970;48.714;9.584;2023-03-01T07:38:25;20.55;;;14.10;;
21615;SDS011;10970;48.714;9.584;2023-03-01T07:40:51;25.48;;;15.98;;
21615;SDS011;10970;48.714;9.584;2023-03-01T07:43:17;25.87;;;18.20;;
21615;SDS011;10970;48.714;9.584;2023-03-01T07:45:42;22.37;;;14.93;;
21615;SDS011;10970;48.714;9.584;2023-03-01T07:48:08;19.63;;;14.10;;
21615;SDS011;10970;48.714;9.584;2023-03-01T07:50:34;27.55;;;15.02;;
21615;SDS011;10970;48.714;9.584;2023-03-01T07:53:00;19.20;;;14.10;;
21615;SDS011;10970;48.714;9.584;2023-03-01T07:55:26;27.43;;;15.80;;
21615;SDS011;10970;48.714;9.584;2023-03-01T07:57:51;21.17;;;15.13;;
21615;SDS011;10970;48.714;9.584;2023-03-01T08:00:17;21.17;;;13.77;;
21615;SDS011;10970;48.714;9.584;2023-03-01T08:02:43;20.55;;;14.40;;
21615;SDS011;10970;48.714;9.584;2023-03-01T08:05:09;24.17;;;15.80;;
21615;SDS011;10970;48.714;9.584;2023-03-01T08:07:35;22.80;;;14.85;;
21615;SDS011;10970;48.714;9.584;2023-03-01T08:10:00;30.43;;;16.97;;
21615;SDS011;10970;48.714;9.584;2023-03-01T08:12:26;19.73;;;13.27;;
21615;SDS011;10970;48.714;9.584;2023-03-01T08:14:53;22.92;;;16.30;;
21615;SDS011;10970;48.714;9.584;2023-03-01T08:17:19;23.00;;;16.38;;
21615;SDS011;10970;48.714;9.584;2023-03-01T08:19:44;26.00;;;13.90;;
21615;SDS011;10970;48.714;9.584;2023-03-01T08:22:10;27.93;;;15.90;;
21615;SDS011;10970;48.714;9.584;2023-03-01T08:24:36;23.80;;;15.60;;
21615;SDS011;10970;48.714;9.584;2023-03-01T08:27:02;25.57;;;16.20;;
21615;SDS011;10970;48.714;9.584;2023-03-01T08:29:28;23.87;;;14.70;;
21615;SDS011;10970;48.714;9.584;2023-03-01T08:31:55;21.88;;;15.75;;
21615;SDS011;10970;48.714;9.584;2023-03-01T08:34:21;21.40;;;14.80;;
21615;SDS011;10970;48.714;9.584;2023-03-01T08:36:47;24.97;;;14.80;;
21615;SDS011;10970;48.714;9.584;2023-03-01T08:39:14;21.30;;;13.77;;
21615;SDS011;10970;48.714;9.584;2023-03-01T08:41:41;21.15;;;15.82;;
21615;SDS011;10970;48.714;9.584;2023-03-01T08:44:07;24.60;;;17.65;;
21615;SDS011;10970;48.714;9.584;2023-03-01T08:46:35;23.08;;;15.57;;
21615;SDS011;10970;48.714;9.584;2023-03-01T08:49:09;18.30;;;13.90;;
21615;SDS011;10970;48.714;9.584;2023-03-01T08:51:37;27.00;;;14.73;;
21615;SDS011;10970;48.714;9.584;2023-03-01T08:54:04;20.13;;;13.63;;
21615;SDS011;10970;48.714;9.584;2023-03-01T08:56:30;21.92;;;15.05;;
21615;SDS011;10970;48.714;9.584;2023-03-01T08:58:56;23.20;;;15.50;;
21615;SDS011;10970;48.714;9.584;2023-03-01T09:01:22;24.53;;;16.77;;
21615;SDS011;10970;48.714;9.584;2023-03-01T09:03:48;21.77;;;14.03;;
21615;SDS011;10970;48.714;9.584;2023-03-01T09:06:14;21.63;;;15.93;;
21615;SDS011;10970;48.714;9.584;2023-03-01T09:08:41;23.05;;;16.45;;
21615;SDS011;10970;48.714;9.584;2023-03-01T09:11:09;24.65;;;14.27;;
21615;SDS011;10970;48.714;9.584;2023-03-01T09:13:36;23.42;;;15.13;;
21615;SDS011;10970;48.714;9.584;2023-03-01T09:16:02;25.33;;;14.83;;
21615;SDS011;10970;48.714;9.584;2023-03-01T09:18:30;16.40;;;11.90;;
21615;SDS011;10970;48.714;9.584;2023-03-01T09:23:55;20.35;;;15.35;;
21615;SDS011;10970;48.714;9.584;2023-03-01T09:26:22;22.95;;;13.73;;
21615;SDS011;10970;48.714;9.584;2023-03-01T09:28:49;22.08;;;14.40;;
21615;SDS011;10970;48.714;9.584;2023-03-01T09:31:16;19.13;;;15.57;;
21615;SDS011;10970;48.714;9.584;2023-03-01T09:33:45;19.70;;;13.07;;
21615;SDS011;10970;48.714;9.584;2023-03-01T09:36:13;29.00;;;15.25;;
21615;SDS011;10970;48.714;9.584;2023-03-01T09:38:41;22.70;;;14.90;;
21615;SDS011;10970;48.714;9.584;2023-03-01T09:41:10;25.00;;;14.20;;
21615;SDS011;10970;48.714;9.584;2023-03-01T09:43:44;19.02;;;13.65;;
21615;SDS011;10970;48.714;9.584;2023-03-01T09:46:19;21.10;;;13.40;;
21615;SDS011;10970;48.714;9.584;2023-03-01T09:48:52;19.98;;;14.15;;
21615;SDS011;10970;48.714;9.584;2023-03-01T09:51:33;21.25;;;15.15;;
21615;SDS011;10970;48.714;9.584;2023-03-01T09:54:04;22.17;;;13.85;;
21615;SDS011;10970;48.714;9.584;2023-03-01T09:56:36;19.02;;;14.05;;
21615;SDS011;10970;48.714;9.584;2023-03-01T10:01:50;18.55;;;13.30;;
21615;SDS011;10970;48.714;9.584;2023-03-01T10:04:46;19.13;;;13.15;;
21615;SDS011;10970;48.714;9.584;2023-03-01T10:07:21;19.60;;;13.10;;
21615;SDS011;10970;48.714;9.584;2023-03-01T10:10:06;17.35;;;12.55;;
21615;SDS011;10970;48.714;9.584;2023-03-01T10:12:34;18.73;;;15.00;;
21615;SDS011;10970;48.714;9.584;2023-03-01T10:17:41;19.48;;;14.15;;
21615;SDS011;10970;48.714;9.584;2023-03-01T10:20:19;16.45;;;13.75;;
21615;SDS011;10970;48.714;9.584;2023-03-01T10:22:45;20.23;;;13.70;;
21615;SDS011;10970;48.714;9.584;2023-03-01T10:25:15;17.77;;;12.35;;
21615;SDS011;10970;48.714;9.584;2023-03-01T10:27:52;17.83;;;12.07;;
21615;SDS011;10970;48.714;9.584;2023-03-01T10:30:29;19.80;;;13.10;;
21615;SDS011;10970;48.714;9.584;2023-03-01T10:33:01;19.00;;;12.52;;
21615;SDS011;10970;48.714;9.584;2023-03-01T10:35:28;17.23;;;12.70;;
21615;SDS011;10970;48.714;9.584;2023-03-01T10:38:08;15.63;;;12.65;;
21615;SDS011;10970;48.714;9.584;2023-03-01T10:40:35;18.05;;;12.30;;
21615;SDS011;10970;48.714;9.584;2023-03-01T10:43:14;16.83;;;11.90;;
21615;SDS011;10970;48.714;9.584;2023-03-01T10:45:39;19.80;;;11.00;;
21615;SDS011;10970;48.714;9.584;2023-03-01T10:50:38;16.85;;;10.82;;
21615;SDS011;10970;48.714;9.584;2023-03-01T10:53:15;15.13;;;11.80;;
21615;SDS011;10970;48.714;9.584;2023-03-01T10:55:48;18.70;;;12.32;;
21615;SDS011;10970;48.714;9.584;2023-03-01T10:58:32;16.08;;;12.40;;
21615;SDS011;10970;48.714;9.584;2023-03-01T11:01:00;17.15;;;12.30;;
21615;SDS011;10970;48.714;9.584;2023-03-01T11:03:30;18.98;;;12.25;;
21615;SDS011;10970;48.714;9.584;2023-03-01T11:11:24;14.75;;;11.13;;
21615;SDS011;10970;48.714;9.584;2023-03-01T11:14:15;19.15;;;11.98;;
21615;SDS011;10970;48.714;9.584;2023-03-01T11:16:43;17.42;;;12.02;;
21615;SDS011;10970;48.714;9.584;2023-03-01T11:21:36;18.10;;;12.83;;
21615;SDS011;10970;48.714;9.584;2023-03-01T11:24:12;17.35;;;11.82;;
21615;SDS011;10970;48.714;9.584;2023-03-01T11:26:42;14.82;;;11.23;;
21615;SDS011;10970;48.714;9.584;2023-03-01T11:29:25;13.07;;;11.25;;
21615;SDS011;10970;48.714;9.584;2023-03-01T11:32:03;17.38;;;12.40;;
21615;SDS011;10970;48.714;9.584;2023-03-01T11:34:38;14.63;;;12.10;;
21615;SDS011;10970;48.714;9.584;2023-03-01T11:37:13;19.67;;;14.05;;
21615;SDS011;10970;48.714;9.584;2023-03-01T11:39:54;18.45;;;11.90;;
21615;SDS011;10970;48.714;9.584;2023-03-01T11:42:50;18.05;;;12.45;;
21615;SDS011;10970;48.714;9.584;2023-03-01T11:45:21;19.52;;;13.80;;
21615;SDS011;10970;48.714;9.584;2023-03-01T11:48:33;20.77;;;13.40;;
21615;SDS011;10970;48.714;9.584;2023-03-01T11:50:56;18.00;;;12.38;;
21615;SDS011;10970;48.714;9.584;2023-03-01T11:56:19;18.52;;;13.60;;
21615;SDS011;10970;48.714;9.584;2023-03-01T11:59:02;18.90;;;12.48;;
21615;SDS011;10970;48.714;9.584;2023-03-01T12:10:42;16.73;;;11.40;;
21615;SDS011;10970;48.714;9.584;2023-03-01T12:16:28;18.45;;;12.93;;
21615;SDS011;10970;48.714;9.584;2023-03-01T12:50:14;17.75;;;12.57;;
21615;SDS011;10970;48.714;9.584;2023-03-01T12:52:46;15.45;;;11.15;;
21615;SDS011;10970;48.714;9.584;2023-03-01T12:55:37;15.10;;;11.07;;
21615;SDS011;10970;48.714;9.584;2023-03-01T13:03:22;13.45;;;11.30;;
21615;SDS011;10970;48.714;9.584;2023-03-01T13:06:25;15.35;;;11.18;;
21615;SDS011;10970;48.714;9.584;2023-03-01T13:09:18;19.02;;;12.18;;
21615;SDS011;10970;48.714;9.584;2023-03-01T13:11:45;16.33;;;11.80;;
21615;SDS011;10970;48.714;9.584;2023-03-01T13:16:46;15.35;;;11.90;;
21615;SDS011;10970;48.714;9.584;2023-03-01T13:19:26;13.25;;;11.85;;
21615;SDS011;10970;48.714;9.584;2023-03-01T13:21:57;15.13;;;11.52;;
21615;SDS011;10970;48.714;9.584;2023-03-01T13:29:47;19.60;;;12.52;;
21615;SDS011;10970;48.714;9.584;2023-03-01T13:34:54;17.50;;;12.48;;
21615;SDS011;10970;48.714;9.584;2023-03-01T13:37:26;12.93;;;11.57;;
21615;SDS011;10970;48.714;9.584;2023-03-01T13:39:57;15.23;;;11.52;;
21615;SDS011;10970;48.714;9.584;2023-03-01T13:42:40;18.20;;;12.35;;
21615;SDS011;10970;48.714;9.584;2023-03-01T13:47:56;15.40;;;11.60;;
21615;SDS011;10970;48.714;9.584;2023-03-01T13:50:29;17.10;;;12.95;;
21615;SDS011;10970;48.714;9.584;2023-03-01T13:53:02;16.15;;;11.48;;
21615;SDS011;10970;48.714;9.584;2023-03-01T14:00:54;15.63;;;12.38;;
21615;SDS011;10970;48.714;9.584;2023-03-01T14:03:21;17.25;;;12.52;;
21615;SDS011;10970;48.714;9.584;2023-03-01T14:08:24;15.35;;;12.45;;
21615;SDS011;10970;48.714;9.584;2023-03-01T14:10:58;20.20;;;13.88;;
21615;SDS011;10970;48.714;9.584;2023-03-01T14:16:25;19.58;;;12.50;;
21615;SDS011;10970;48.714;9.584;2023-03-01T14:21:49;18.08;;;12.52;;
21615;SDS011;10970;48.714;9.584;2023-03-01T14:24:37;20.17;;;11.63;;
21615;SDS011;10970;48.714;9.584;2023-03-01T14:27:11;17.80;;;12.70;;
21615;SDS011;10970;48.714;9.584;2023-03-01T14:29:38;13.13;;;11.00;;
21615;SDS011;10970;48.714;9.584;2023-03-01T14:32:21;28.55;;;15.32;;
21615;SDS011;10970;48.714;9.584;2023-03-01T14:34:50;19.15;;;12.63;;
21615;SDS011;10970;48.714;9.584;2023-03-01T14:37:26;18.38;;;11.60;;
21615;SDS011;10970;48.714;9.584;2023-03-01T14:39:57;19.85;;;12.48;;
21615;SDS011;10970;48.714;9.584;2023-03-01T14:42:24;20.45;;;12.60;;
21615;SDS011;10970;48.714;9.584;2023-03-01T14:44:56;15.52;;;12.05;;
21615;SDS011;10970;48.714;9.584;2023-03-01T14:47:25;16.77;;;12.18;;
21615;SDS011;10970;48.714;9.584;2023-03-01T14:50:05;14.63;;;11.57;;
21615;SDS011;10970;48.714;9.584;2023-03-01T14:52:34;16.77;;;14.07;;
21615;SDS011;10970;48.714;9.584;2023-03-01T14:55:05;17.63;;;12.18;;
21615;SDS011;10970;48.714;9.584;2023-03-01T14:57:42;15.98;;;11.85;;
21615;SDS011;10970;48.714;9.584;2023-03-01T15:00:10;17.60;;;12.05;;
21615;SDS011;10970;48.714;9.584;2023-03-01T15:02:50;15.27;;;11.75;;
21615;SDS011;10970;48.714;9.584;2023-03-01T15:05:19;15.80;;;11.60;;
21615;SDS011;10970;48.714;9.584;2023-03-01T15:07:54;13.68;;;11.40;;
21615;SDS011;10970;48.714;9.584;2023-03-01T15:10:23;13.50;;;10.13;;
21615;SDS011;10970;48.714;9.584;2023-03-01T15:12:51;13.93;;;10.10;;
21615;SDS011;10970;48.714;9.584;2023-03-01T15:18:01;14.68;;;12.27;;
21615;SDS011;10970;48.714;9.584;2023-03-01T15:20:30;15.48;;;11.52;;
21615;SDS011;10970;48.714;9.584;2023-03-01T15:23:00;14.80;;;11.30;;
21615;SDS011;10970;48.714;9.584;2023-03-01T15:25:28;17.42;;;12.60;;
21615;SDS011;10970;48.714;9.584;2023-03-01T15:27:55;14.48;;;10.63;;
21615;SDS011;10970;48.714;9.584;2023-03-01T15:30:23;14.30;;;11.07;;
21615;SDS011;10970;48.714;9.584;2023-03-01T15:35:57;19.65;;;11.38;;
21615;SDS011;10970;48.714;9.584;2023-03-01T15:40:58;12.93;;;10.75;;
21615;SDS011;10970;48.714;9.584;2023-03-01T15:43:59;17.02;;;12.70;;
21615;SDS011;10970;48.714;9.584;2023-03-01T15:48:55;13.73;;;11.13;;
21615;SDS011;10970;48.714;9.584;2023-03-01T15:51:27;17.92;;;10.23;;
21615;SDS011;10970;48.714;9.584;2023-03-01T15:53:56;16.88;;;11.43;;
21615;SDS011;10970;48.714;9.584;2023-03-01T15:56:24;16.10;;;10.57;;
21615;SDS011;10970;48.714;9.584;2023-03-01T15:58:50;15.30;;;11.77;;
21615;SDS011;10970;48.714;9.584;2023-03-01T16:01:16;14.50;;;11.00;;
21615;SDS011;10970;48.714;9.584;2023-03-01T16:03:42;15.23;;;10.80;;
21615;SDS011;10970;48.714;9.584;2023-03-01T16:06:09;12.25;;;10.55;;
21615;SDS011;10970;48.714;9.584;2023-03-01T16:08:36;12.60;;;9.80;;
21615;SDS011;10970;48.714;9.584;2023-03-01T16:11:03;14.70;;;10.90;;
21615;SDS011;10970;48.714;9.584;2023-03-01T16:13:34;19.00;;;11.10;;
21615;SDS011;10970;48.714;9.584;2023-03-01T16:15:59;12.17;;;10.03;;
21615;SDS011;10970;48.714;9.584;2023-03-01T16:18:25;12.20;;;9.90;;
21615;SDS011;10970;48.714;9.584;2023-03-01T16:20:50;16.90;;;10.40;;
21615;SDS011;10970;48.714;9.584;2023-03-01T16:23:17;14.50;;;11.15;;
21615;SDS011;10970;48.714;9.584;2023-03-01T16:25:43;16.00;;;12.03;;
21615;SDS011;10970;48.714;9.584;2023-03-01T16:28:09;15.30;;;9.90;;
21615;SDS011;10970;48.714;9.584;2023-03-01T16:30:35;16.93;;;11.17;;
21615;SDS011;10970;48.714;9.584;2023-03-01T16:33:02;12.73;;;9.63;;
21615;SDS011;10970;48.714;9.584;2023-03-01T16:35:31;17.70;;;11.25;;